NFFNSEGS

Guest
Details From NFFN - Nadi Intl
To SEGS - Galapagos - Baltra
Flight Number -
Tags Generated
Created
Modified
Stats Distance 5,529 nm / 10,239 km
Max Altitude 0 ft / 0 m
Waypoints 3
Social Downloads 1
Likes 0
Share VATSIM

Download

Looking for another format? Having issues loading an existing format? Contact us
Advertisement - Login to hide

Notes

Generated

Route

NFFN GLS SEGS

ID Type Via Altitude (ft/m) Position (lat/lon) Dist (leg/tot) Name
O NFFN APT - 0 / 0 -17.75352 / 177.43591 - / 0 nm
GLS NDB - 0 / 0 -0.43222 / -90.28306 5527 / 5527 nm GALAPAGOS NDB
O SEGS APT - 0 / 0 -0.44499 / -90.27228 1 / 5528 nm

Altitude Profile

Advertisement - Login to hide

Weather


0- 5 10 15 20 25 30 35+ Temperature / °C

Clouds and Precipitation
Forecast for 2018-10-17 18:00 UTC. Updated 4 hours ago

Ground ~20,000 ft ~40,000 ft Winds

NFFN

Details ICAO NFFN (NAN)
Name Nadi Int'l
Region Fiji and Tonga
Timezone Pacific/Fiji (UTC+12.0)
Stats Elevation 59 ft / 18 m (AMSL)
Location -17.758400° 177.442000°
Runways 2
Magnetic Variation 12.435° E

METAR

NFFN 172000Z 00000KT 9999 FEW028 SCT047 BKN110 25/22 Q1014 TEMPO 3000 SHRA

Decode

TAF

TAF NFFN 171702Z 1718/1818 08010KT 9999 -SHRA SCT025 BKN040 TEMPO 1718/1806 3000 SHRA BKN017

Decode

Departure Runways

ID Width Length Bearing (true/mag) Surface Threshold Overrun Markings Lighting
02 148 ft / 45 m 10,529 ft / 3,209 m 37.50° / 25.06° ASPHALT 197 ft / 60 m 82 ft / 25 m PREC-APP CENTERLINE EDGE THRESHOLD ALSF-II REIL-OMNI
09 148 ft / 45 m 7,008 ft / 2,136 m 104.20° / 91.77° ASPHALT 0 ft / 0 m 95 ft / 29 m PREC-APP EDGE THRESHOLD ALSF-I REIL-OMNI
20 148 ft / 45 m 10,529 ft / 3,209 m 217.49° / 205.06° ASPHALT 0 ft / 0 m 108 ft / 33 m PREC-APP CENTERLINE EDGE THRESHOLD ALSF-II
27 148 ft / 45 m 7,008 ft / 2,136 m 284.20° / 271.76° ASPHALT 0 ft / 0 m 0 ft / 0 m PREC-APP EDGE THRESHOLD ALSF-I REIL-OMNI

SEGS

Details ICAO SEGS (GPS)
Name Galapagos - Baltra
Region Equador
Timezone Pacific/Galapagos (UTC-6.0)
Stats Elevation 207 ft / 63 m (AMSL)
Location -0.454002° -90.265800°
Runways 1
Magnetic Variation 3.376° E

METAR

SEGS 171900Z 29008KT CAVOK 26/15 Q1013 A2990

Decode

TAF

Not found

Destination Runways

ID Width Length Bearing (true/mag) Surface Threshold Overrun Markings Lighting
14 115 ft / 35 m 8,179 ft / 2,493 m 144.02° / 140.64° ASPHALT 0 ft / 0 m 331 ft / 101 m PREC-APP
32 115 ft / 35 m 8,179 ft / 2,493 m 324.02° / 320.64° ASPHALT 0 ft / 0 m 354 ft / 108 m PREC-APP

Approach Navaids

Runway Type Ident Frequency Range Bearing (true/mag) Slope Elevation
14 LOC-ILS ILB 110.90 MHz 18 nm / 33 km 144.01° / 140.64 ° - 207 ft / 63 m (AMSL)
14 GS ILB 110.90 MHz 10 nm / 19 km 144.02° / 140.65 ° 3.00° 207 ft / 63 m (AMSL)